sensor_id;sensor_type;location;lat;lon;timestamp;P1;durP1;ratioP1;P2;durP2;ratioP2
9860;SDS011;4969;52.304;4.968;2023-03-26T00:01:37;11.80;;;8.70;;
9860;SDS011;4969;52.304;4.968;2023-03-26T00:04:04;16.33;;;10.47;;
9860;SDS011;4969;52.304;4.968;2023-03-26T00:06:32;11.50;;;8.50;;
9860;SDS011;4969;52.304;4.968;2023-03-26T00:09:03;13.33;;;8.73;;
9860;SDS011;4969;52.304;4.968;2023-03-26T00:11:31;9.80;;;5.27;;
9860;SDS011;4969;52.304;4.968;2023-03-26T00:13:57;12.70;;;9.13;;
9860;SDS011;4969;52.304;4.968;2023-03-26T00:16:26;11.33;;;7.83;;
9860;SDS011;4969;52.304;4.968;2023-03-26T00:18:54;13.60;;;8.43;;
9860;SDS011;4969;52.304;4.968;2023-03-26T00:21:22;17.90;;;9.40;;
9860;SDS011;4969;52.304;4.968;2023-03-26T00:23:52;10.88;;;7.95;;
9860;SDS011;4969;52.304;4.968;2023-03-26T00:26:19;11.52;;;8.10;;
9860;SDS011;4969;52.304;4.968;2023-03-26T00:28:46;11.98;;;7.20;;
9860;SDS011;4969;52.304;4.968;2023-03-26T00:31:15;12.00;;;8.38;;
9860;SDS011;4969;52.304;4.968;2023-03-26T00:33:43;10.23;;;6.15;;
9860;SDS011;4969;52.304;4.968;2023-03-26T00:36:12;13.77;;;9.68;;
9860;SDS011;4969;52.304;4.968;2023-03-26T00:38:41;11.93;;;8.88;;
9860;SDS011;4969;52.304;4.968;2023-03-26T00:41:09;14.13;;;7.88;;
9860;SDS011;4969;52.304;4.968;2023-03-26T00:43:41;11.82;;;8.82;;
9860;SDS011;4969;52.304;4.968;2023-03-26T00:46:09;14.70;;;8.30;;
9860;SDS011;4969;52.304;4.968;2023-03-26T00:48:35;12.07;;;9.05;;
9860;SDS011;4969;52.304;4.968;2023-03-26T00:51:04;12.55;;;8.65;;
9860;SDS011;4969;52.304;4.968;2023-03-26T00:53:32;12.02;;;8.13;;
9860;SDS011;4969;52.304;4.968;2023-03-26T00:56:02;14.00;;;8.35;;
9860;SDS011;4969;52.304;4.968;2023-03-26T00:58:29;9.32;;;7.32;;
9860;SDS011;4969;52.304;4.968;2023-03-26T01:00:58;13.60;;;8.10;;
9860;SDS011;4969;52.304;4.968;2023-03-26T01:03:27;12.85;;;8.50;;
9860;SDS011;4969;52.304;4.968;2023-03-26T01:05:57;12.90;;;9.07;;
9860;SDS011;4969;52.304;4.968;2023-03-26T01:08:30;11.40;;;8.18;;
9860;SDS011;4969;52.304;4.968;2023-03-26T01:10:58;14.95;;;9.13;;
9860;SDS011;4969;52.304;4.968;2023-03-26T01:13:32;9.73;;;8.15;;
9860;SDS011;4969;52.304;4.968;2023-03-26T01:16:01;13.05;;;8.70;;
9860;SDS011;4969;52.304;4.968;2023-03-26T01:18:29;11.63;;;8.20;;
9860;SDS011;4969;52.304;4.968;2023-03-26T01:21:05;9.00;;;7.78;;
9860;SDS011;4969;52.304;4.968;2023-03-26T01:23:39;11.57;;;8.40;;
9860;SDS011;4969;52.304;4.968;2023-03-26T01:26:13;9.50;;;7.95;;
9860;SDS011;4969;52.304;4.968;2023-03-26T01:28:50;11.82;;;8.35;;
9860;SDS011;4969;52.304;4.968;2023-03-26T01:31:23;10.25;;;8.10;;
9860;SDS011;4969;52.304;4.968;2023-03-26T01:33:57;8.52;;;4.90;;
9860;SDS011;4969;52.304;4.968;2023-03-26T01:36:32;8.40;;;6.38;;
9860;SDS011;4969;52.304;4.968;2023-03-26T01:39:04;13.10;;;6.57;;
9860;SDS011;4969;52.304;4.968;2023-03-26T01:41:37;10.83;;;7.40;;
9860;SDS011;4969;52.304;4.968;2023-03-26T01:44:10;9.45;;;5.18;;
9860;SDS011;4969;52.304;4.968;2023-03-26T01:46:45;11.73;;;8.10;;
9860;SDS011;4969;52.304;4.968;2023-03-26T01:49:13;11.20;;;8.47;;
9860;SDS011;4969;52.304;4.968;2023-03-26T01:51:40;13.85;;;8.85;;
9860;SDS011;4969;52.304;4.968;2023-03-26T01:54:09;9.98;;;8.20;;
9860;SDS011;4969;52.304;4.968;2023-03-26T01:56:41;10.32;;;7.95;;
9860;SDS011;4969;52.304;4.968;2023-03-26T01:59:19;11.03;;;7.87;;
9860;SDS011;4969;52.304;4.968;2023-03-26T02:01:59;16.00;;;8.23;;
9860;SDS011;4969;52.304;4.968;2023-03-26T02:04:35;12.15;;;7.43;;
9860;SDS011;4969;52.304;4.968;2023-03-26T02:07:09;7.23;;;5.00;;
9860;SDS011;4969;52.304;4.968;2023-03-26T02:09:43;9.70;;;7.87;;
9860;SDS011;4969;52.304;4.968;2023-03-26T02:12:15;11.70;;;8.43;;
9860;SDS011;4969;52.304;4.968;2023-03-26T02:14:42;13.15;;;9.98;;
9860;SDS011;4969;52.304;4.968;2023-03-26T02:17:09;13.00;;;9.35;;
9860;SDS011;4969;52.304;4.968;2023-03-26T02:19:36;11.40;;;8.35;;
9860;SDS011;4969;52.304;4.968;2023-03-26T02:22:06;11.38;;;8.40;;
9860;SDS011;4969;52.304;4.968;2023-03-26T02:24:35;9.50;;;7.10;;
9860;SDS011;4969;52.304;4.968;2023-03-26T02:27:01;8.60;;;5.22;;
9860;SDS011;4969;52.304;4.968;2023-03-26T02:29:29;9.57;;;7.80;;
9860;SDS011;4969;52.304;4.968;2023-03-26T02:31:56;9.75;;;8.00;;
9860;SDS011;4969;52.304;4.968;2023-03-26T02:34:22;11.70;;;7.63;;
9860;SDS011;4969;52.304;4.968;2023-03-26T02:36:49;9.02;;;7.63;;
9860;SDS011;4969;52.304;4.968;2023-03-26T02:39:15;9.93;;;7.07;;
9860;SDS011;4969;52.304;4.968;2023-03-26T02:41:42;9.95;;;6.28;;
9860;SDS011;4969;52.304;4.968;2023-03-26T02:44:08;10.57;;;6.53;;
9860;SDS011;4969;52.304;4.968;2023-03-26T02:46:36;12.47;;;8.03;;
9860;SDS011;4969;52.304;4.968;2023-03-26T02:49:03;10.67;;;7.93;;
9860;SDS011;4969;52.304;4.968;2023-03-26T02:51:30;11.47;;;7.77;;
9860;SDS011;4969;52.304;4.968;2023-03-26T02:53:59;9.98;;;8.00;;
9860;SDS011;4969;52.304;4.968;2023-03-26T02:56:25;9.18;;;8.07;;
9860;SDS011;4969;52.304;4.968;2023-03-26T02:58:52;9.75;;;7.78;;
9860;SDS011;4969;52.304;4.968;2023-03-26T03:01:18;9.90;;;7.65;;
9860;SDS011;4969;52.304;4.968;2023-03-26T03:03:48;7.95;;;6.95;;
9860;SDS011;4969;52.304;4.968;2023-03-26T03:06:15;8.40;;;7.47;;
9860;SDS011;4969;52.304;4.968;2023-03-26T03:08:43;10.18;;;7.90;;
9860;SDS011;4969;52.304;4.968;2023-03-26T03:11:11;10.50;;;7.63;;
9860;SDS011;4969;52.304;4.968;2023-03-26T03:13:38;10.50;;;7.82;;
9860;SDS011;4969;52.304;4.968;2023-03-26T03:16:05;9.95;;;7.70;;
9860;SDS011;4969;52.304;4.968;2023-03-26T03:18:32;9.80;;;7.75;;
9860;SDS011;4969;52.304;4.968;2023-03-26T03:21:01;10.13;;;7.30;;
9860;SDS011;4969;52.304;4.968;2023-03-26T03:23:27;10.85;;;7.90;;
9860;SDS011;4969;52.304;4.968;2023-03-26T03:25:55;7.95;;;7.10;;
9860;SDS011;4969;52.304;4.968;2023-03-26T03:28:22;8.57;;;7.78;;
9860;SDS011;4969;52.304;4.968;2023-03-26T03:30:49;8.67;;;6.77;;
9860;SDS011;4969;52.304;4.968;2023-03-26T03:33:17;9.48;;;8.50;;
9860;SDS011;4969;52.304;4.968;2023-03-26T03:35:44;10.13;;;7.43;;
9860;SDS011;4969;52.304;4.968;2023-03-26T03:38:13;9.93;;;7.93;;
9860;SDS011;4969;52.304;4.968;2023-03-26T03:40:39;9.85;;;7.70;;
9860;SDS011;4969;52.304;4.968;2023-03-26T03:43:06;9.07;;;7.43;;
9860;SDS011;4969;52.304;4.968;2023-03-26T03:45:33;11.30;;;8.13;;
9860;SDS011;4969;52.304;4.968;2023-03-26T03:47:59;9.30;;;7.53;;
9860;SDS011;4969;52.304;4.968;2023-03-26T03:50:26;12.57;;;8.43;;
9860;SDS011;4969;52.304;4.968;2023-03-26T03:52:52;8.57;;;7.70;;
9860;SDS011;4969;52.304;4.968;2023-03-26T03:55:21;9.57;;;7.70;;
9860;SDS011;4969;52.304;4.968;2023-03-26T03:57:48;10.95;;;8.10;;
9860;SDS011;4969;52.304;4.968;2023-03-26T04:00:15;9.93;;;7.70;;
9860;SDS011;4969;52.304;4.968;2023-03-26T04:02:42;8.75;;;7.50;;
9860;SDS011;4969;52.304;4.968;2023-03-26T04:05:10;9.73;;;7.57;;
9860;SDS011;4969;52.304;4.968;2023-03-26T04:07:37;8.57;;;7.30;;
9860;SDS011;4969;52.304;4.968;2023-03-26T04:10:04;8.60;;;7.80;;
9860;SDS011;4969;52.304;4.968;2023-03-26T04:12:33;11.45;;;7.70;;
9860;SDS011;4969;52.304;4.968;2023-03-26T04:15:00;12.40;;;8.40;;
9860;SDS011;4969;52.304;4.968;2023-03-26T04:17:27;10.57;;;8.02;;
9860;SDS011;4969;52.304;4.968;2023-03-26T04:19:54;11.00;;;8.98;;
9860;SDS011;4969;52.304;4.968;2023-03-26T04:22:21;11.20;;;7.78;;
9860;SDS011;4969;52.304;4.968;2023-03-26T04:24:52;12.70;;;8.23;;
9860;SDS011;4969;52.304;4.968;2023-03-26T04:27:28;8.48;;;7.60;;
9860;SDS011;4969;52.304;4.968;2023-03-26T04:29:57;8.90;;;7.32;;
9860;SDS011;4969;52.304;4.968;2023-03-26T04:32:27;10.37;;;7.30;;
9860;SDS011;4969;52.304;4.968;2023-03-26T04:34:58;8.48;;;7.03;;
9860;SDS011;4969;52.304;4.968;2023-03-26T04:37:28;9.00;;;7.28;;
9860;SDS011;4969;52.304;4.968;2023-03-26T04:39:58;9.63;;;7.60;;
9860;SDS011;4969;52.304;4.968;2023-03-26T04:42:25;9.47;;;7.70;;
9860;SDS011;4969;52.304;4.968;2023-03-26T04:44:52;10.30;;;7.28;;
9860;SDS011;4969;52.304;4.968;2023-03-26T04:47:20;8.77;;;7.10;;
9860;SDS011;4969;52.304;4.968;2023-03-26T04:49:47;7.78;;;6.97;;
9860;SDS011;4969;52.304;4.968;2023-03-26T04:52:14;8.43;;;7.10;;
9860;SDS011;4969;52.304;4.968;2023-03-26T04:54:40;10.18;;;7.00;;
9860;SDS011;4969;52.304;4.968;2023-03-26T04:57:11;12.10;;;7.95;;
9860;SDS011;4969;52.304;4.968;2023-03-26T04:59:42;12.27;;;7.60;;
9860;SDS011;4969;52.304;4.968;2023-03-26T05:02:09;12.98;;;7.90;;
9860;SDS011;4969;52.304;4.968;2023-03-26T05:04:38;15.20;;;7.20;;
9860;SDS011;4969;52.304;4.968;2023-03-26T05:07:05;15.20;;;7.03;;
9860;SDS011;4969;52.304;4.968;2023-03-26T05:09:33;20.10;;;8.07;;
9860;SDS011;4969;52.304;4.968;2023-03-26T05:12:00;15.73;;;8.13;;
9860;SDS011;4969;52.304;4.968;2023-03-26T05:14:27;19.30;;;8.50;;
9860;SDS011;4969;52.304;4.968;2023-03-26T05:16:53;16.97;;;8.90;;
9860;SDS011;4969;52.304;4.968;2023-03-26T05:19:21;19.27;;;8.17;;
9860;SDS011;4969;52.304;4.968;2023-03-26T05:21:49;21.63;;;8.23;;
9860;SDS011;4969;52.304;4.968;2023-03-26T05:24:15;23.03;;;8.47;;
9860;SDS011;4969;52.304;4.968;2023-03-26T05:26:43;21.53;;;8.43;;
9860;SDS011;4969;52.304;4.968;2023-03-26T05:29:10;30.40;;;9.70;;
9860;SDS011;4969;52.304;4.968;2023-03-26T05:31:37;30.63;;;9.87;;
9860;SDS011;4969;52.304;4.968;2023-03-26T05:34:04;30.73;;;10.37;;
9860;SDS011;4969;52.304;4.968;2023-03-26T05:36:30;28.13;;;10.50;;
9860;SDS011;4969;52.304;4.968;2023-03-26T05:38:58;33.80;;;10.23;;
9860;SDS011;4969;52.304;4.968;2023-03-26T05:41:25;29.27;;;10.63;;
9860;SDS011;4969;52.304;4.968;2023-03-26T05:43:51;34.17;;;11.50;;
9860;SDS011;4969;52.304;4.968;2023-03-26T05:46:18;35.60;;;11.10;;
9860;SDS011;4969;52.304;4.968;2023-03-26T05:48:46;42.50;;;11.70;;
9860;SDS011;4969;52.304;4.968;2023-03-26T05:51:13;27.50;;;10.53;;
9860;SDS011;4969;52.304;4.968;2023-03-26T05:53:40;33.73;;;11.90;;
9860;SDS011;4969;52.304;4.968;2023-03-26T05:56:09;35.03;;;11.67;;
9860;SDS011;4969;52.304;4.968;2023-03-26T05:58:35;32.37;;;11.63;;
9860;SDS011;4969;52.304;4.968;2023-03-26T06:01:03;36.23;;;12.43;;
9860;SDS011;4969;52.304;4.968;2023-03-26T06:03:32;34.83;;;11.83;;
9860;SDS011;4969;52.304;4.968;2023-03-26T06:06:00;38.90;;;13.07;;
9860;SDS011;4969;52.304;4.968;2023-03-26T06:08:27;40.63;;;12.77;;
9860;SDS011;4969;52.304;4.968;2023-03-26T06:10:58;42.30;;;13.80;;
9860;SDS011;4969;52.304;4.968;2023-03-26T06:13:27;46.67;;;14.70;;
9860;SDS011;4969;52.304;4.968;2023-03-26T06:15:54;53.03;;;14.93;;
9860;SDS011;4969;52.304;4.968;2023-03-26T06:18:21;49.50;;;14.57;;
9860;SDS011;4969;52.304;4.968;2023-03-26T06:20:48;60.57;;;16.93;;
9860;SDS011;4969;52.304;4.968;2023-03-26T06:23:15;59.33;;;15.87;;
9860;SDS011;4969;52.304;4.968;2023-03-26T06:25:42;62.47;;;16.57;;
9860;SDS011;4969;52.304;4.968;2023-03-26T06:28:09;85.63;;;21.20;;
9860;SDS011;4969;52.304;4.968;2023-03-26T06:30:38;84.80;;;18.90;;
9860;SDS011;4969;52.304;4.968;2023-03-26T06:33:05;77.47;;;18.10;;
9860;SDS011;4969;52.304;4.968;2023-03-26T06:35:32;84.13;;;20.97;;
9860;SDS011;4969;52.304;4.968;2023-03-26T06:37:58;82.67;;;20.23;;
9860;SDS011;4969;52.304;4.968;2023-03-26T06:40:25;69.20;;;19.27;;
9860;SDS011;4969;52.304;4.968;2023-03-26T06:42:52;38.23;;;15.00;;
9860;SDS011;4969;52.304;4.968;2023-03-26T06:45:20;57.30;;;18.00;;
9860;SDS011;4969;52.304;4.968;2023-03-26T06:47:48;45.57;;;15.33;;
9860;SDS011;4969;52.304;4.968;2023-03-26T06:50:14;43.23;;;15.47;;
9860;SDS011;4969;52.304;4.968;2023-03-26T06:52:41;33.90;;;14.50;;
9860;SDS011;4969;52.304;4.968;2023-03-26T06:55:08;35.23;;;15.63;;
9860;SDS011;4969;52.304;4.968;2023-03-26T06:57:34;34.07;;;14.27;;
9860;SDS011;4969;52.304;4.968;2023-03-26T07:00:01;28.87;;;14.67;;
9860;SDS011;4969;52.304;4.968;2023-03-26T07:02:28;30.13;;;13.90;;
9860;SDS011;4969;52.304;4.968;2023-03-26T07:04:56;29.80;;;12.87;;
9860;SDS011;4969;52.304;4.968;2023-03-26T07:07:23;29.40;;;14.07;;
9860;SDS011;4969;52.304;4.968;2023-03-26T07:09:50;29.37;;;13.33;;
9860;SDS011;4969;52.304;4.968;2023-03-26T07:12:16;21.70;;;12.20;;
9860;SDS011;4969;52.304;4.968;2023-03-26T07:14:43;25.90;;;12.97;;
9860;SDS011;4969;52.304;4.968;2023-03-26T07:17:10;18.13;;;10.20;;
9860;SDS011;4969;52.304;4.968;2023-03-26T07:19:36;18.53;;;10.33;;
9860;SDS011;4969;52.304;4.968;2023-03-26T07:22:04;18.93;;;9.90;;
9860;SDS011;4969;52.304;4.968;2023-03-26T07:24:31;15.97;;;9.20;;
9860;SDS011;4969;52.304;4.968;2023-03-26T07:26:59;18.03;;;10.07;;
9860;SDS011;4969;52.304;4.968;2023-03-26T07:29:32;20.83;;;9.90;;
9860;SDS011;4969;52.304;4.968;2023-03-26T07:32:03;18.60;;;9.77;;
9860;SDS011;4969;52.304;4.968;2023-03-26T07:34:41;15.33;;;8.73;;
9860;SDS011;4969;52.304;4.968;2023-03-26T07:37:14;15.37;;;9.00;;
9860;SDS011;4969;52.304;4.968;2023-03-26T07:39:51;18.03;;;8.43;;
9860;SDS011;4969;52.304;4.968;2023-03-26T07:42:26;14.53;;;8.93;;
9860;SDS011;4969;52.304;4.968;2023-03-26T07:45:02;12.13;;;8.93;;
9860;SDS011;4969;52.304;4.968;2023-03-26T07:47:38;15.77;;;8.67;;
9860;SDS011;4969;52.304;4.968;2023-03-26T07:50:09;14.27;;;8.90;;
9860;SDS011;4969;52.304;4.968;2023-03-26T07:52:41;14.27;;;11.33;;
9860;SDS011;4969;52.304;4.968;2023-03-26T07:55:11;15.80;;;11.20;;
9860;SDS011;4969;52.304;4.968;2023-03-26T07:57:40;13.87;;;8.40;;
9860;SDS011;4969;52.304;4.968;2023-03-26T08:00:14;12.40;;;9.10;;
9860;SDS011;4969;52.304;4.968;2023-03-26T08:02:49;15.30;;;8.67;;
9860;SDS011;4969;52.304;4.968;2023-03-26T08:05:36;13.57;;;7.90;;
9860;SDS011;4969;52.304;4.968;2023-03-26T08:08:12;10.97;;;6.40;;
9860;SDS011;4969;52.304;4.968;2023-03-26T08:10:48;13.67;;;7.23;;
9860;SDS011;4969;52.304;4.968;2023-03-26T08:13:27;11.90;;;6.80;;
9860;SDS011;4969;52.304;4.968;2023-03-26T08:16:05;9.73;;;7.13;;
9860;SDS011;4969;52.304;4.968;2023-03-26T08:18:40;11.23;;;7.30;;
9860;SDS011;4969;52.304;4.968;2023-03-26T08:21:11;11.57;;;7.20;;
9860;SDS011;4969;52.304;4.968;2023-03-26T08:23:49;10.40;;;6.90;;
9860;SDS011;4969;52.304;4.968;2023-03-26T08:26:25;12.47;;;6.40;;
9860;SDS011;4969;52.304;4.968;2023-03-26T08:29:00;11.33;;;6.17;;
9860;SDS011;4969;52.304;4.968;2023-03-26T08:31:35;15.70;;;6.70;;
9860;SDS011;4969;52.304;4.968;2023-03-26T08:34:04;11.83;;;5.50;;
9860;SDS011;4969;52.304;4.968;2023-03-26T08:36:34;13.60;;;5.80;;
9860;SDS011;4969;52.304;4.968;2023-03-26T08:39:03;13.37;;;5.63;;
9860;SDS011;4969;52.304;4.968;2023-03-26T08:41:43;9.37;;;5.30;;
9860;SDS011;4969;52.304;4.968;2023-03-26T08:44:49;15.60;;;6.17;;
9860;SDS011;4969;52.304;4.968;2023-03-26T08:54:11;12.47;;;3.93;;
9860;SDS011;4969;52.304;4.968;2023-03-26T08:56:50;17.20;;;4.20;;
9860;SDS011;4969;52.304;4.968;2023-03-26T08:59:27;18.23;;;5.07;;
9860;SDS011;4969;52.304;4.968;2023-03-26T09:02:21;13.57;;;4.03;;
9860;SDS011;4969;52.304;4.968;2023-03-26T09:08:18;17.97;;;4.50;;
9860;SDS011;4969;52.304;4.968;2023-03-26T09:11:33;10.97;;;4.00;;
9860;SDS011;4969;52.304;4.968;2023-03-26T09:14:23;18.87;;;5.20;;
9860;SDS011;4969;52.304;4.968;2023-03-26T09:17:28;19.13;;;8.40;;
9860;SDS011;4969;52.304;4.968;2023-03-26T09:20:25;17.30;;;7.40;;
9860;SDS011;4969;52.304;4.968;2023-03-26T09:23:16;14.10;;;4.50;;
9860;SDS011;4969;52.304;4.968;2023-03-26T09:25:58;18.40;;;4.83;;
9860;SDS011;4969;52.304;4.968;2023-03-26T09:34:50;18.23;;;6.10;;
9860;SDS011;4969;52.304;4.968;2023-03-26T09:37:36;16.37;;;4.47;;
9860;SDS011;4969;52.304;4.968;2023-03-26T09:40:16;13.23;;;6.10;;
9860;SDS011;4969;52.304;4.968;2023-03-26T09:42:48;19.73;;;7.90;;
9860;SDS011;4969;52.304;4.968;2023-03-26T09:45:27;17.33;;;3.70;;
9860;SDS011;4969;52.304;4.968;2023-03-26T09:48:21;15.37;;;5.10;;
9860;SDS011;4969;52.304;4.968;2023-03-26T09:51:11;15.50;;;4.00;;
9860;SDS011;4969;52.304;4.968;2023-03-26T09:54:01;16.30;;;4.13;;
9860;SDS011;4969;52.304;4.968;2023-03-26T09:56:40;15.67;;;3.80;;
9860;SDS011;4969;52.304;4.968;2023-03-26T09:59:21;19.57;;;4.80;;
9860;SDS011;4969;52.304;4.968;2023-03-26T10:02:08;17.20;;;4.57;;
9860;SDS011;4969;52.304;4.968;2023-03-26T10:04:53;20.00;;;4.67;;
9860;SDS011;4969;52.304;4.968;2023-03-26T10:07:36;18.00;;;3.90;;
9860;SDS011;4969;52.304;4.968;2023-03-26T10:10:14;16.83;;;4.40;;
9860;SDS011;4969;52.304;4.968;2023-03-26T10:12:49;15.87;;;4.03;;
9860;SDS011;4969;52.304;4.968;2023-03-26T10:15:23;12.93;;;3.90;;
9860;SDS011;4969;52.304;4.968;2023-03-26T10:18:03;14.83;;;3.90;;
9860;SDS011;4969;52.304;4.968;2023-03-26T10:20:47;14.07;;;3.93;;
9860;SDS011;4969;52.304;4.968;2023-03-26T10:23:30;16.73;;;3.67;;
9860;SDS011;4969;52.304;4.968;2023-03-26T10:26:18;15.83;;;3.87;;
9860;SDS011;4969;52.304;4.968;2023-03-26T10:32:00;16.80;;;4.60;;
9860;SDS011;4969;52.304;4.968;2023-03-26T10:34:43;14.83;;;3.83;;
9860;SDS011;4969;52.304;4.968;2023-03-26T10:37:17;14.57;;;3.60;;
9860;SDS011;4969;52.304;4.968;2023-03-26T10:39:59;18.87;;;4.03;;
9860;SDS011;4969;52.304;4.968;2023-03-26T10:42:57;10.07;;;3.33;;
9860;SDS011;4969;52.304;4.968;2023-03-26T10:45:58;13.47;;;4.03;;
9860;SDS011;4969;52.304;4.968;2023-03-26T10:48:48;9.80;;;3.43;;
9860;SDS011;4969;52.304;4.968;2023-03-26T10:51:38;15.47;;;4.33;;
9860;SDS011;4969;52.304;4.968;2023-03-26T10:54:13;13.40;;;4.03;;
9860;SDS011;4969;52.304;4.968;2023-03-26T10:56:48;17.73;;;4.13;;
9860;SDS011;4969;52.304;4.968;2023-03-26T10:59:16;16.83;;;3.70;;
9860;SDS011;4969;52.304;4.968;2023-03-26T11:01:44;13.63;;;3.83;;
9860;SDS011;4969;52.304;4.968;2023-03-26T11:04:18;17.23;;;3.70;;
9860;SDS011;4969;52.304;4.968;2023-03-26T11:06:55;17.10;;;4.63;;
9860;SDS011;4969;52.304;4.968;2023-03-26T11:09:31;13.37;;;3.90;;
9860;SDS011;4969;52.304;4.968;2023-03-26T11:12:05;14.70;;;3.87;;
9860;SDS011;4969;52.304;4.968;2023-03-26T11:14:39;16.57;;;3.93;;
9860;SDS011;4969;52.304;4.968;2023-03-26T11:17:12;15.30;;;4.03;;
9860;SDS011;4969;52.304;4.968;2023-03-26T11:19:46;15.10;;;3.93;;
9860;SDS011;4969;52.304;4.968;2023-03-26T11:22:19;18.57;;;3.67;;
9860;SDS011;4969;52.304;4.968;2023-03-26T11:24:56;13.37;;;3.80;;
9860;SDS011;4969;52.304;4.968;2023-03-26T11:27:37;15.30;;;3.80;;
9860;SDS011;4969;52.304;4.968;2023-03-26T11:30:13;16.37;;;4.23;;
9860;SDS011;4969;52.304;4.968;2023-03-26T11:32:47;15.40;;;3.20;;
9860;SDS011;4969;52.304;4.968;2023-03-26T11:35:18;10.50;;;3.63;;
9860;SDS011;4969;52.304;4.968;2023-03-26T11:37:52;13.73;;;3.97;;
9860;SDS011;4969;52.304;4.968;2023-03-26T11:40:22;16.13;;;3.70;;
9860;SDS011;4969;52.304;4.968;2023-03-26T11:42:52;12.93;;;3.50;;
9860;SDS011;4969;52.304;4.968;2023-03-26T11:45:24;13.03;;;3.50;;
9860;SDS011;4969;52.304;4.968;2023-03-26T11:47:54;16.67;;;4.10;;
9860;SDS011;4969;52.304;4.968;2023-03-26T11:50:25;16.77;;;4.10;;
9860;SDS011;4969;52.304;4.968;2023-03-26T11:52:58;15.57;;;4.20;;
9860;SDS011;4969;52.304;4.968;2023-03-26T11:55:35;13.93;;;3.50;;
9860;SDS011;4969;52.304;4.968;2023-03-26T11:58:05;11.43;;;3.83;;
9860;SDS011;4969;52.304;4.968;2023-03-26T12:00:46;13.33;;;3.63;;
9860;SDS011;4969;52.304;4.968;2023-03-26T12:03:14;13.43;;;3.50;;
9860;SDS011;4969;52.304;4.968;2023-03-26T12:05:45;12.87;;;2.87;;
9860;SDS011;4969;52.304;4.968;2023-03-26T12:08:18;12.30;;;3.80;;
9860;SDS011;4969;52.304;4.968;2023-03-26T12:10:50;13.47;;;4.43;;
9860;SDS011;4969;52.304;4.968;2023-03-26T12:13:33;12.47;;;3.80;;
9860;SDS011;4969;52.304;4.968;2023-03-26T12:16:05;11.57;;;3.33;;
9860;SDS011;4969;52.304;4.968;2023-03-26T12:18:35;9.53;;;3.03;;
9860;SDS011;4969;52.304;4.968;2023-03-26T12:21:04;14.00;;;3.23;;
9860;SDS011;4969;52.304;4.968;2023-03-26T12:23:41;10.93;;;5.20;;
9860;SDS011;4969;52.304;4.968;2023-03-26T12:26:18;10.00;;;4.47;;
9860;SDS011;4969;52.304;4.968;2023-03-26T12:28:46;11.50;;;2.87;;
9860;SDS011;4969;52.304;4.968;2023-03-26T12:31:16;10.70;;;3.33;;
9860;SDS011;4969;52.304;4.968;2023-03-26T12:33:45;10.13;;;2.60;;
9860;SDS011;4969;52.304;4.968;2023-03-26T12:36:29;11.53;;;4.20;;
9860;SDS011;4969;52.304;4.968;2023-03-26T12:38:58;10.40;;;2.87;;
9860;SDS011;4969;52.304;4.968;2023-03-26T12:41:31;13.13;;;3.33;;
9860;SDS011;4969;52.304;4.968;2023-03-26T12:44:13;9.50;;;3.00;;
9860;SDS011;4969;52.304;4.968;2023-03-26T12:46:47;10.03;;;2.70;;
9860;SDS011;4969;52.304;4.968;2023-03-26T12:49:18;10.50;;;2.93;;
9860;SDS011;4969;52.304;4.968;2023-03-26T12:51:47;8.37;;;2.80;;
9860;SDS011;4969;52.304;4.968;2023-03-26T12:54:26;11.57;;;2.83;;
9860;SDS011;4969;52.304;4.968;2023-03-26T12:57:09;9.67;;;3.10;;
9860;SDS011;4969;52.304;4.968;2023-03-26T12:59:46;9.97;;;2.53;;
9860;SDS011;4969;52.304;4.968;2023-03-26T13:02:37;9.33;;;3.70;;
9860;SDS011;4969;52.304;4.968;2023-03-26T13:05:32;11.90;;;2.90;;
9860;SDS011;4969;52.304;4.968;2023-03-26T13:08:14;10.63;;;3.40;;
9860;SDS011;4969;52.304;4.968;2023-03-26T13:11:05;8.03;;;3.30;;
9860;SDS011;4969;52.304;4.968;2023-03-26T13:13:50;9.90;;;2.83;;
9860;SDS011;4969;52.304;4.968;2023-03-26T13:16:38;9.20;;;3.17;;
9860;SDS011;4969;52.304;4.968;2023-03-26T13:19:11;11.83;;;2.60;;
9860;SDS011;4969;52.304;4.968;2023-03-26T13:21:45;11.37;;;3.00;;
9860;SDS011;4969;52.304;4.968;2023-03-26T13:24:25;8.87;;;3.43;;
9860;SDS011;4969;52.304;4.968;2023-03-26T13:27:06;9.93;;;2.73;;
9860;SDS011;4969;52.304;4.968;2023-03-26T13:29:45;9.03;;;2.43;;
9860;SDS011;4969;52.304;4.968;2023-03-26T13:32:21;7.10;;;2.37;;
9860;SDS011;4969;52.304;4.968;2023-03-26T13:34:57;8.63;;;3.07;;
9860;SDS011;4969;52.304;4.968;2023-03-26T13:37:36;6.03;;;2.23;;
9860;SDS011;4969;52.304;4.968;2023-03-26T13:40:12;6.83;;;2.40;;
9860;SDS011;4969;52.304;4.968;2023-03-26T13:42:49;6.23;;;2.60;;
9860;SDS011;4969;52.304;4.968;2023-03-26T13:45:29;9.40;;;2.33;;
9860;SDS011;4969;52.304;4.968;2023-03-26T13:48:08;10.43;;;2.70;;
9860;SDS011;4969;52.304;4.968;2023-03-26T13:50:40;7.00;;;2.40;;
9860;SDS011;4969;52.304;4.968;2023-03-26T13:53:10;7.80;;;2.40;;
9860;SDS011;4969;52.304;4.968;2023-03-26T13:55:42;12.80;;;3.03;;
9860;SDS011;4969;52.304;4.968;2023-03-26T13:58:15;10.93;;;3.00;;
9860;SDS011;4969;52.304;4.968;2023-03-26T14:00:50;7.03;;;2.50;;
9860;SDS011;4969;52.304;4.968;2023-03-26T14:03:22;7.63;;;2.50;;
9860;SDS011;4969;52.304;4.968;2023-03-26T14:05:55;8.70;;;2.57;;
9860;SDS011;4969;52.304;4.968;2023-03-26T14:08:26;12.17;;;3.13;;
9860;SDS011;4969;52.304;4.968;2023-03-26T14:10:58;8.60;;;2.23;;
9860;SDS011;4969;52.304;4.968;2023-03-26T14:13:34;9.17;;;3.60;;
9860;SDS011;4969;52.304;4.968;2023-03-26T14:16:08;9.87;;;3.07;;
9860;SDS011;4969;52.304;4.968;2023-03-26T14:18:41;9.00;;;2.80;;
9860;SDS011;4969;52.304;4.968;2023-03-26T14:21:16;8.47;;;2.37;;
9860;SDS011;4969;52.304;4.968;2023-03-26T14:24:03;6.73;;;2.20;;
9860;SDS011;4969;52.304;4.968;2023-03-26T14:26:44;7.70;;;2.83;;
9860;SDS011;4969;52.304;4.968;2023-03-26T14:32:31;8.17;;;2.53;;
9860;SDS011;4969;52.304;4.968;2023-03-26T14:38:05;10.23;;;2.90;;
9860;SDS011;4969;52.304;4.968;2023-03-26T14:41:01;9.20;;;2.50;;
9860;SDS011;4969;52.304;4.968;2023-03-26T14:46:39;7.23;;;2.70;;
9860;SDS011;4969;52.304;4.968;2023-03-26T14:52:18;7.80;;;2.30;;
9860;SDS011;4969;52.304;4.968;2023-03-26T14:54:51;11.73;;;2.70;;
9860;SDS011;4969;52.304;4.968;2023-03-26T14:57:31;6.27;;;2.27;;
9860;SDS011;4969;52.304;4.968;2023-03-26T15:03:53;13.47;;;4.97;;
9860;SDS011;4969;52.304;4.968;2023-03-26T15:09:53;8.63;;;2.40;;
9860;SDS011;4969;52.304;4.968;2023-03-26T15:12:45;7.23;;;2.50;;
9860;SDS011;4969;52.304;4.968;2023-03-26T15:28:24;8.10;;;2.70;;
9860;SDS011;4969;52.304;4.968;2023-03-26T15:31:27;8.03;;;2.13;;
9860;SDS011;4969;52.304;4.968;2023-03-26T15:40:24;10.93;;;2.70;;
9860;SDS011;4969;52.304;4.968;2023-03-26T15:42:58;10.70;;;3.13;;
9860;SDS011;4969;52.304;4.968;2023-03-26T15:45:32;8.50;;;2.60;;
9860;SDS011;4969;52.304;4.968;2023-03-26T15:48:06;7.13;;;2.47;;
9860;SDS011;4969;52.304;4.968;2023-03-26T15:50:53;7.87;;;2.30;;
9860;SDS011;4969;52.304;4.968;2023-03-26T15:53:31;6.97;;;2.17;;
9860;SDS011;4969;52.304;4.968;2023-03-26T15:58:52;6.90;;;2.00;;
9860;SDS011;4969;52.304;4.968;2023-03-26T16:01:28;5.53;;;2.50;;
9860;SDS011;4969;52.304;4.968;2023-03-26T16:04:07;7.23;;;2.53;;
9860;SDS011;4969;52.304;4.968;2023-03-26T16:06:46;5.77;;;2.10;;
9860;SDS011;4969;52.304;4.968;2023-03-26T16:09:30;7.90;;;2.37;;
9860;SDS011;4969;52.304;4.968;2023-03-26T16:15:14;7.47;;;2.50;;
9860;SDS011;4969;52.304;4.968;2023-03-26T16:27:03;6.27;;;2.30;;
9860;SDS011;4969;52.304;4.968;2023-03-26T16:32:52;6.73;;;2.00;;
9860;SDS011;4969;52.304;4.968;2023-03-26T16:35:24;5.77;;;1.90;;
9860;SDS011;4969;52.304;4.968;2023-03-26T16:38:03;7.80;;;2.00;;
9860;SDS011;4969;52.304;4.968;2023-03-26T16:40:35;6.67;;;2.00;;
9860;SDS011;4969;52.304;4.968;2023-03-26T16:43:18;5.83;;;2.23;;
9860;SDS011;4969;52.304;4.968;2023-03-26T16:46:00;6.07;;;1.97;;
9860;SDS011;4969;52.304;4.968;2023-03-26T16:48:34;6.87;;;2.27;;
9860;SDS011;4969;52.304;4.968;2023-03-26T16:51:07;6.10;;;1.70;;
9860;SDS011;4969;52.304;4.968;2023-03-26T16:53:41;5.67;;;1.90;;
9860;SDS011;4969;52.304;4.968;2023-03-26T16:56:14;6.53;;;2.10;;